sensor_id;sensor_type;location;lat;lon;timestamp;temperature;humidity
25360;DHT22;13311;51.386;0.016;2023-08-06T00:04:31;18.70;93.40
25360;DHT22;13311;51.386;0.016;2023-08-06T00:09:31;18.60;93.40
25360;DHT22;13311;51.386;0.016;2023-08-06T00:14:32;18.60;93.40
25360;DHT22;13311;51.386;0.016;2023-08-06T00:19:33;18.50;93.40
25360;DHT22;13311;51.386;0.016;2023-08-06T00:24:34;18.50;93.50
25360;DHT22;13311;51.386;0.016;2023-08-06T00:29:35;18.40;93.20
25360;DHT22;13311;51.386;0.016;2023-08-06T00:34:36;18.30;93.30
25360;DHT22;13311;51.386;0.016;2023-08-06T00:39:36;18.40;93.10
25360;DHT22;13311;51.386;0.016;2023-08-06T00:44:38;18.30;93.30
25360;DHT22;13311;51.386;0.016;2023-08-06T00:49:39;18.40;93.20
25360;DHT22;13311;51.386;0.016;2023-08-06T00:54:40;18.40;92.80
25360;DHT22;13311;51.386;0.016;2023-08-06T00:59:41;18.30;92.80
25360;DHT22;13311;51.386;0.016;2023-08-06T01:04:42;18.20;92.50
25360;DHT22;13311;51.386;0.016;2023-08-06T01:09:55;18.10;92.70
25360;DHT22;13311;51.386;0.016;2023-08-06T01:20:06;17.90;92.80
25360;DHT22;13311;51.386;0.016;2023-08-06T01:25:08;17.90;92.90
25360;DHT22;13311;51.386;0.016;2023-08-06T01:30:27;17.90;92.60
25360;DHT22;13311;51.386;0.016;2023-08-06T01:35:31;17.70;93.00
25360;DHT22;13311;51.386;0.016;2023-08-06T01:40:32;17.70;93.10
25360;DHT22;13311;51.386;0.016;2023-08-06T01:45:34;17.60;93.00
25360;DHT22;13311;51.386;0.016;2023-08-06T01:50:35;17.60;93.20
25360;DHT22;13311;51.386;0.016;2023-08-06T01:55:36;17.60;93.40
25360;DHT22;13311;51.386;0.016;2023-08-06T02:00:36;17.50;93.10
25360;DHT22;13311;51.386;0.016;2023-08-06T02:05:37;17.50;93.30
25360;DHT22;13311;51.386;0.016;2023-08-06T02:10:38;17.60;93.10
25360;DHT22;13311;51.386;0.016;2023-08-06T02:15:45;17.50;93.10
25360;DHT22;13311;51.386;0.016;2023-08-06T02:20:59;17.60;93.10
25360;DHT22;13311;51.386;0.016;2023-08-06T02:26:04;17.60;93.10
25360;DHT22;13311;51.386;0.016;2023-08-06T02:31:05;17.50;93.00
25360;DHT22;13311;51.386;0.016;2023-08-06T02:36:07;17.40;93.10
25360;DHT22;13311;51.386;0.016;2023-08-06T02:41:07;17.30;93.10
25360;DHT22;13311;51.386;0.016;2023-08-06T02:46:08;17.30;93.10
25360;DHT22;13311;51.386;0.016;2023-08-06T02:51:09;17.10;93.20
25360;DHT22;13311;51.386;0.016;2023-08-06T02:56:09;16.90;93.40
25360;DHT22;13311;51.386;0.016;2023-08-06T03:01:10;16.90;93.70
25360;DHT22;13311;51.386;0.016;2023-08-06T03:06:11;16.80;93.70
25360;DHT22;13311;51.386;0.016;2023-08-06T03:11:12;16.50;93.90
25360;DHT22;13311;51.386;0.016;2023-08-06T03:16:13;16.50;93.90
25360;DHT22;13311;51.386;0.016;2023-08-06T03:21:13;16.50;94.20
25360;DHT22;13311;51.386;0.016;2023-08-06T03:26:14;16.50;94.00
25360;DHT22;13311;51.386;0.016;2023-08-06T03:31:15;16.30;94.10
25360;DHT22;13311;51.386;0.016;2023-08-06T03:36:16;16.30;94.20
25360;DHT22;13311;51.386;0.016;2023-08-06T03:41:16;16.20;94.10
25360;DHT22;13311;51.386;0.016;2023-08-06T03:46:17;16.20;94.20
25360;DHT22;13311;51.386;0.016;2023-08-06T03:51:17;16.10;94.10
25360;DHT22;13311;51.386;0.016;2023-08-06T03:56:18;16.10;94.10
25360;DHT22;13311;51.386;0.016;2023-08-06T04:01:19;16.10;94.10
25360;DHT22;13311;51.386;0.016;2023-08-06T04:06:20;16.30;94.00
25360;DHT22;13311;51.386;0.016;2023-08-06T04:11:20;16.30;93.80
25360;DHT22;13311;51.386;0.016;2023-08-06T04:16:21;16.20;93.70
25360;DHT22;13311;51.386;0.016;2023-08-06T04:21:22;16.20;93.70
25360;DHT22;13311;51.386;0.016;2023-08-06T04:26:23;16.10;93.80
25360;DHT22;13311;51.386;0.016;2023-08-06T04:31:23;16.00;94.10
25360;DHT22;13311;51.386;0.016;2023-08-06T04:36:24;15.80;94.50
25360;DHT22;13311;51.386;0.016;2023-08-06T04:41:25;15.70;94.70
25360;DHT22;13311;51.386;0.016;2023-08-06T04:46:25;15.80;94.50
25360;DHT22;13311;51.386;0.016;2023-08-06T04:51:26;15.80;94.40
25360;DHT22;13311;51.386;0.016;2023-08-06T04:56:27;15.90;94.40
25360;DHT22;13311;51.386;0.016;2023-08-06T05:01:28;15.80;94.60
25360;DHT22;13311;51.386;0.016;2023-08-06T05:06:29;15.80;94.50
25360;DHT22;13311;51.386;0.016;2023-08-06T05:11:29;15.80;94.50
25360;DHT22;13311;51.386;0.016;2023-08-06T05:16:30;15.70;94.80
25360;DHT22;13311;51.386;0.016;2023-08-06T05:21:31;15.90;94.50
25360;DHT22;13311;51.386;0.016;2023-08-06T05:26:32;16.10;94.50
25360;DHT22;13311;51.386;0.016;2023-08-06T05:31:32;16.00;94.70
25360;DHT22;13311;51.386;0.016;2023-08-06T05:36:33;16.20;94.30
25360;DHT22;13311;51.386;0.016;2023-08-06T05:41:34;16.60;94.70
25360;DHT22;13311;51.386;0.016;2023-08-06T05:46:34;17.10;94.70
25360;DHT22;13311;51.386;0.016;2023-08-06T05:51:35;18.00;93.50
25360;DHT22;13311;51.386;0.016;2023-08-06T05:56:36;19.00;92.20
25360;DHT22;13311;51.386;0.016;2023-08-06T06:01:36;19.90;90.00
25360;DHT22;13311;51.386;0.016;2023-08-06T06:06:37;20.60;89.90
25360;DHT22;13311;51.386;0.016;2023-08-06T06:11:37;21.20;84.80
25360;DHT22;13311;51.386;0.016;2023-08-06T06:16:38;21.80;83.30
25360;DHT22;13311;51.386;0.016;2023-08-06T06:21:39;22.40;81.00
25360;DHT22;13311;51.386;0.016;2023-08-06T06:26:40;22.80;80.60
25360;DHT22;13311;51.386;0.016;2023-08-06T06:31:41;23.30;78.80
25360;DHT22;13311;51.386;0.016;2023-08-06T06:36:41;23.60;77.70
25360;DHT22;13311;51.386;0.016;2023-08-06T06:41:42;24.10;76.30
25360;DHT22;13311;51.386;0.016;2023-08-06T06:46:43;24.60;73.20
25360;DHT22;13311;51.386;0.016;2023-08-06T06:51:43;24.60;73.50
25360;DHT22;13311;51.386;0.016;2023-08-06T06:56:44;24.60;74.10
25360;DHT22;13311;51.386;0.016;2023-08-06T07:01:45;24.80;73.40
25360;DHT22;13311;51.386;0.016;2023-08-06T07:06:45;25.00;71.80
25360;DHT22;13311;51.386;0.016;2023-08-06T07:11:46;25.10;71.40
25360;DHT22;13311;51.386;0.016;2023-08-06T07:16:47;25.20;71.50
25360;DHT22;13311;51.386;0.016;2023-08-06T07:21:47;25.00;71.50
25360;DHT22;13311;51.386;0.016;2023-08-06T07:26:48;24.80;72.20
25360;DHT22;13311;51.386;0.016;2023-08-06T07:31:49;24.60;73.20
25360;DHT22;13311;51.386;0.016;2023-08-06T07:36:50;24.60;72.10
25360;DHT22;13311;51.386;0.016;2023-08-06T07:41:51;24.50;72.10
25360;DHT22;13311;51.386;0.016;2023-08-06T07:46:52;24.30;73.00
25360;DHT22;13311;51.386;0.016;2023-08-06T07:51:52;24.10;73.90
25360;DHT22;13311;51.386;0.016;2023-08-06T07:56:53;23.70;74.90
25360;DHT22;13311;51.386;0.016;2023-08-06T08:01:54;23.50;75.60
25360;DHT22;13311;51.386;0.016;2023-08-06T08:06:54;23.20;77.10
25360;DHT22;13311;51.386;0.016;2023-08-06T08:11:55;23.10;75.00
25360;DHT22;13311;51.386;0.016;2023-08-06T08:16:56;23.30;76.60
25360;DHT22;13311;51.386;0.016;2023-08-06T08:21:56;23.30;76.50
25360;DHT22;13311;51.386;0.016;2023-08-06T08:26:57;23.30;77.80
25360;DHT22;13311;51.386;0.016;2023-08-06T08:31:58;23.30;77.00
25360;DHT22;13311;51.386;0.016;2023-08-06T08:36:58;23.50;77.70
25360;DHT22;13311;51.386;0.016;2023-08-06T08:41:59;23.50;75.50
25360;DHT22;13311;51.386;0.016;2023-08-06T08:47:01;23.50;76.70
25360;DHT22;13311;51.386;0.016;2023-08-06T08:52:03;23.60;76.90
25360;DHT22;13311;51.386;0.016;2023-08-06T08:57:08;23.60;74.30
25360;DHT22;13311;51.386;0.016;2023-08-06T09:02:11;23.60;78.60
25360;DHT22;13311;51.386;0.016;2023-08-06T09:07:17;23.40;77.40
25360;DHT22;13311;51.386;0.016;2023-08-06T09:12:18;23.50;76.70
25360;DHT22;13311;51.386;0.016;2023-08-06T09:17:19;23.50;72.60
25360;DHT22;13311;51.386;0.016;2023-08-06T09:22:20;23.70;74.80
25360;DHT22;13311;51.386;0.016;2023-08-06T09:27:22;23.70;76.30
25360;DHT22;13311;51.386;0.016;2023-08-06T09:32:24;23.80;78.40
25360;DHT22;13311;51.386;0.016;2023-08-06T09:37:27;23.70;79.00
25360;DHT22;13311;51.386;0.016;2023-08-06T09:42:42;23.70;75.70
25360;DHT22;13311;51.386;0.016;2023-08-06T09:47:45;23.90;78.20
25360;DHT22;13311;51.386;0.016;2023-08-06T09:52:50;23.80;80.50
25360;DHT22;13311;51.386;0.016;2023-08-06T09:57:53;23.80;78.40
25360;DHT22;13311;51.386;0.016;2023-08-06T10:02:55;24.00;77.10
25360;DHT22;13311;51.386;0.016;2023-08-06T10:08:01;24.20;77.50
25360;DHT22;13311;51.386;0.016;2023-08-06T10:13:03;24.30;78.40
25360;DHT22;13311;51.386;0.016;2023-08-06T10:18:05;24.30;77.40
25360;DHT22;13311;51.386;0.016;2023-08-06T10:23:06;24.40;76.90
25360;DHT22;13311;51.386;0.016;2023-08-06T10:28:09;24.40;72.10
25360;DHT22;13311;51.386;0.016;2023-08-06T10:33:10;24.50;75.50
25360;DHT22;13311;51.386;0.016;2023-08-06T10:38:22;24.50;75.30
25360;DHT22;13311;51.386;0.016;2023-08-06T10:43:26;24.50;78.80
25360;DHT22;13311;51.386;0.016;2023-08-06T10:48:41;24.30;77.40
25360;DHT22;13311;51.386;0.016;2023-08-06T10:53:44;24.30;75.90
25360;DHT22;13311;51.386;0.016;2023-08-06T10:58:47;24.00;72.30
25360;DHT22;13311;51.386;0.016;2023-08-06T11:03:49;23.80;76.30
25360;DHT22;13311;51.386;0.016;2023-08-06T11:08:52;23.90;81.90
25360;DHT22;13311;51.386;0.016;2023-08-06T11:13:53;23.80;75.80
25360;DHT22;13311;51.386;0.016;2023-08-06T11:18:55;23.90;78.20
25360;DHT22;13311;51.386;0.016;2023-08-06T11:23:56;24.00;78.30
25360;DHT22;13311;51.386;0.016;2023-08-06T11:28:57;23.80;73.40
25360;DHT22;13311;51.386;0.016;2023-08-06T11:33:58;23.70;74.90
25360;DHT22;13311;51.386;0.016;2023-08-06T11:39:03;23.70;78.30
25360;DHT22;13311;51.386;0.016;2023-08-06T11:44:05;23.60;80.00
25360;DHT22;13311;51.386;0.016;2023-08-06T11:49:06;23.50;76.60
25360;DHT22;13311;51.386;0.016;2023-08-06T11:54:07;23.50;81.70
25360;DHT22;13311;51.386;0.016;2023-08-06T11:59:08;23.40;77.50
25360;DHT22;13311;51.386;0.016;2023-08-06T12:04:09;23.60;80.80
25360;DHT22;13311;51.386;0.016;2023-08-06T12:09:09;23.70;77.40
25360;DHT22;13311;51.386;0.016;2023-08-06T12:14:11;23.90;79.90
25360;DHT22;13311;51.386;0.016;2023-08-06T12:19:11;24.00;80.30
25360;DHT22;13311;51.386;0.016;2023-08-06T12:24:12;24.10;78.30
25360;DHT22;13311;51.386;0.016;2023-08-06T12:29:13;24.20;79.40
25360;DHT22;13311;51.386;0.016;2023-08-06T12:34:13;24.40;78.00
25360;DHT22;13311;51.386;0.016;2023-08-06T12:39:15;24.60;78.90
25360;DHT22;13311;51.386;0.016;2023-08-06T12:44:15;24.60;75.20
25360;DHT22;13311;51.386;0.016;2023-08-06T12:49:16;24.50;74.90
25360;DHT22;13311;51.386;0.016;2023-08-06T12:54:17;24.40;75.80
25360;DHT22;13311;51.386;0.016;2023-08-06T12:59:19;24.50;79.90
25360;DHT22;13311;51.386;0.016;2023-08-06T13:04:20;24.50;75.10
25360;DHT22;13311;51.386;0.016;2023-08-06T13:09:21;24.40;77.60
25360;DHT22;13311;51.386;0.016;2023-08-06T13:14:21;24.40;77.50
25360;DHT22;13311;51.386;0.016;2023-08-06T13:19:22;24.40;78.00
25360;DHT22;13311;51.386;0.016;2023-08-06T13:24:23;24.50;74.80
25360;DHT22;13311;51.386;0.016;2023-08-06T13:29:25;24.40;72.80
25360;DHT22;13311;51.386;0.016;2023-08-06T13:34:26;24.40;76.70
25360;DHT22;13311;51.386;0.016;2023-08-06T13:39:27;24.20;76.50
25360;DHT22;13311;51.386;0.016;2023-08-06T13:44:27;24.00;78.40
25360;DHT22;13311;51.386;0.016;2023-08-06T13:49:29;24.00;78.40
25360;DHT22;13311;51.386;0.016;2023-08-06T13:54:29;24.00;77.80
25360;DHT22;13311;51.386;0.016;2023-08-06T13:59:30;24.10;75.80
25360;DHT22;13311;51.386;0.016;2023-08-06T14:04:31;24.10;74.60
25360;DHT22;13311;51.386;0.016;2023-08-06T14:09:32;24.20;78.50
25360;DHT22;13311;51.386;0.016;2023-08-06T14:14:34;24.30;74.20
25360;DHT22;13311;51.386;0.016;2023-08-06T14:19:35;24.30;72.10
25360;DHT22;13311;51.386;0.016;2023-08-06T14:24:35;24.40;76.60
25360;DHT22;13311;51.386;0.016;2023-08-06T14:29:36;24.50;78.10
25360;DHT22;13311;51.386;0.016;2023-08-06T14:34:37;24.50;75.40
25360;DHT22;13311;51.386;0.016;2023-08-06T14:39:38;24.50;77.70
25360;DHT22;13311;51.386;0.016;2023-08-06T14:44:38;24.50;72.60
25360;DHT22;13311;51.386;0.016;2023-08-06T14:49:39;24.60;79.90
25360;DHT22;13311;51.386;0.016;2023-08-06T14:54:40;24.60;75.80
25360;DHT22;13311;51.386;0.016;2023-08-06T14:59:41;24.70;78.40
25360;DHT22;13311;51.386;0.016;2023-08-06T15:04:41;24.60;78.80
25360;DHT22;13311;51.386;0.016;2023-08-06T15:09:42;24.60;79.80
25360;DHT22;13311;51.386;0.016;2023-08-06T15:14:43;24.60;74.90
25360;DHT22;13311;51.386;0.016;2023-08-06T15:19:43;24.70;76.70
25360;DHT22;13311;51.386;0.016;2023-08-06T15:24:44;24.60;72.30
25360;DHT22;13311;51.386;0.016;2023-08-06T15:29:46;24.70;79.10
25360;DHT22;13311;51.386;0.016;2023-08-06T15:34:47;24.60;77.70
25360;DHT22;13311;51.386;0.016;2023-08-06T15:39:47;24.60;75.60
25360;DHT22;13311;51.386;0.016;2023-08-06T15:44:48;24.70;78.90
25360;DHT22;13311;51.386;0.016;2023-08-06T15:49:49;24.70;78.70
25360;DHT22;13311;51.386;0.016;2023-08-06T15:54:50;24.50;74.00
25360;DHT22;13311;51.386;0.016;2023-08-06T15:59:50;24.50;74.80
25360;DHT22;13311;51.386;0.016;2023-08-06T16:04:51;24.50;73.60
25360;DHT22;13311;51.386;0.016;2023-08-06T16:09:54;24.50;75.90
25360;DHT22;13311;51.386;0.016;2023-08-06T16:14:55;24.50;77.30
25360;DHT22;13311;51.386;0.016;2023-08-06T16:19:56;24.50;73.90
25360;DHT22;13311;51.386;0.016;2023-08-06T16:24:56;24.50;76.80
25360;DHT22;13311;51.386;0.016;2023-08-06T16:29:57;24.50;73.80
25360;DHT22;13311;51.386;0.016;2023-08-06T16:34:58;24.40;75.40
25360;DHT22;13311;51.386;0.016;2023-08-06T16:39:59;24.40;77.90
25360;DHT22;13311;51.386;0.016;2023-08-06T16:44:59;24.50;77.80
25360;DHT22;13311;51.386;0.016;2023-08-06T16:50:00;24.40;76.30
25360;DHT22;13311;51.386;0.016;2023-08-06T16:55:01;24.40;75.40
25360;DHT22;13311;51.386;0.016;2023-08-06T17:00:02;24.50;77.30
25360;DHT22;13311;51.386;0.016;2023-08-06T17:05:03;24.50;75.30
25360;DHT22;13311;51.386;0.016;2023-08-06T17:10:05;24.70;78.10
25360;DHT22;13311;51.386;0.016;2023-08-06T17:15:07;24.60;76.70
25360;DHT22;13311;51.386;0.016;2023-08-06T17:20:08;24.60;73.80
25360;DHT22;13311;51.386;0.016;2023-08-06T17:25:09;24.50;72.50
25360;DHT22;13311;51.386;0.016;2023-08-06T17:30:10;24.40;67.80
25360;DHT22;13311;51.386;0.016;2023-08-06T17:35:10;24.30;68.80
25360;DHT22;13311;51.386;0.016;2023-08-06T17:40:11;24.30;70.90
25360;DHT22;13311;51.386;0.016;2023-08-06T17:45:12;24.20;74.90
25360;DHT22;13311;51.386;0.016;2023-08-06T17:50:13;24.10;71.50
25360;DHT22;13311;51.386;0.016;2023-08-06T17:55:13;24.10;73.10
25360;DHT22;13311;51.386;0.016;2023-08-06T18:00:14;24.00;68.90
25360;DHT22;13311;51.386;0.016;2023-08-06T18:05:15;24.00;72.50
25360;DHT22;13311;51.386;0.016;2023-08-06T18:10:15;23.90;69.70
25360;DHT22;13311;51.386;0.016;2023-08-06T18:15:16;23.90;68.40
25360;DHT22;13311;51.386;0.016;2023-08-06T18:20:17;23.80;69.30
25360;DHT22;13311;51.386;0.016;2023-08-06T18:25:18;23.80;69.60
25360;DHT22;13311;51.386;0.016;2023-08-06T18:30:18;23.60;68.00
25360;DHT22;13311;51.386;0.016;2023-08-06T18:35:19;23.60;66.30
25360;DHT22;13311;51.386;0.016;2023-08-06T18:40:20;23.60;69.70
25360;DHT22;13311;51.386;0.016;2023-08-06T18:45:20;23.50;69.70
25360;DHT22;13311;51.386;0.016;2023-08-06T18:50:21;23.50;74.20
25360;DHT22;13311;51.386;0.016;2023-08-06T18:55:22;23.50;71.50
25360;DHT22;13311;51.386;0.016;2023-08-06T19:00:23;23.40;67.90
25360;DHT22;13311;51.386;0.016;2023-08-06T19:05:26;23.30;69.60
25360;DHT22;13311;51.386;0.016;2023-08-06T19:10:27;23.20;66.80
25360;DHT22;13311;51.386;0.016;2023-08-06T19:15:28;23.00;65.60
25360;DHT22;13311;51.386;0.016;2023-08-06T19:20:28;22.90;67.00
25360;DHT22;13311;51.386;0.016;2023-08-06T19:25:29;22.90;70.30
25360;DHT22;13311;51.386;0.016;2023-08-06T19:30:32;22.70;68.00
25360;DHT22;13311;51.386;0.016;2023-08-06T19:35:46;22.60;66.50
25360;DHT22;13311;51.386;0.016;2023-08-06T19:40:51;22.50;66.20
25360;DHT22;13311;51.386;0.016;2023-08-06T19:46:04;22.40;69.40
25360;DHT22;13311;51.386;0.016;2023-08-06T19:51:04;22.40;68.70
25360;DHT22;13311;51.386;0.016;2023-08-06T19:56:05;22.20;67.10
25360;DHT22;13311;51.386;0.016;2023-08-06T20:01:06;22.10;67.60
25360;DHT22;13311;51.386;0.016;2023-08-06T20:06:09;22.00;71.00
25360;DHT22;13311;51.386;0.016;2023-08-06T20:11:10;21.90;68.90
25360;DHT22;13311;51.386;0.016;2023-08-06T20:16:11;21.80;69.60
25360;DHT22;13311;51.386;0.016;2023-08-06T20:21:12;21.70;69.90
25360;DHT22;13311;51.386;0.016;2023-08-06T20:26:13;21.60;70.30
25360;DHT22;13311;51.386;0.016;2023-08-06T20:31:14;21.50;71.20
25360;DHT22;13311;51.386;0.016;2023-08-06T20:36:15;21.40;72.00
25360;DHT22;13311;51.386;0.016;2023-08-06T20:41:15;21.40;72.80
25360;DHT22;13311;51.386;0.016;2023-08-06T20:46:16;21.30;73.80
25360;DHT22;13311;51.386;0.016;2023-08-06T20:51:17;21.20;74.00
25360;DHT22;13311;51.386;0.016;2023-08-06T20:56:17;21.20;74.70
25360;DHT22;13311;51.386;0.016;2023-08-06T21:01:18;21.20;74.50
25360;DHT22;13311;51.386;0.016;2023-08-06T21:06:19;21.20;74.50
25360;DHT22;13311;51.386;0.016;2023-08-06T21:11:20;21.20;74.00
25360;DHT22;13311;51.386;0.016;2023-08-06T21:16:20;21.20;74.10
25360;DHT22;13311;51.386;0.016;2023-08-06T21:21:21;21.10;74.70
25360;DHT22;13311;51.386;0.016;2023-08-06T21:26:22;21.00;74.80
25360;DHT22;13311;51.386;0.016;2023-08-06T21:31:22;21.00;75.30
25360;DHT22;13311;51.386;0.016;2023-08-06T21:36:23;20.90;75.10
25360;DHT22;13311;51.386;0.016;2023-08-06T21:41:25;20.80;75.10
25360;DHT22;13311;51.386;0.016;2023-08-06T21:46:25;20.80;75.50
25360;DHT22;13311;51.386;0.016;2023-08-06T21:51:27;20.70;75.80
25360;DHT22;13311;51.386;0.016;2023-08-06T21:56:27;20.60;76.20
25360;DHT22;13311;51.386;0.016;2023-08-06T22:01:28;20.60;76.40
25360;DHT22;13311;51.386;0.016;2023-08-06T22:06:29;20.50;76.50
25360;DHT22;13311;51.386;0.016;2023-08-06T22:11:29;20.40;77.00
25360;DHT22;13311;51.386;0.016;2023-08-06T22:16:30;20.40;77.40
25360;DHT22;13311;51.386;0.016;2023-08-06T22:21:31;20.40;78.00
25360;DHT22;13311;51.386;0.016;2023-08-06T22:26:31;20.30;78.60
25360;DHT22;13311;51.386;0.016;2023-08-06T22:31:32;20.20;79.10
25360;DHT22;13311;51.386;0.016;2023-08-06T22:36:33;20.10;79.70
25360;DHT22;13311;51.386;0.016;2023-08-06T22:41:34;20.00;80.10
25360;DHT22;13311;51.386;0.016;2023-08-06T22:46:34;20.00;80.90
25360;DHT22;13311;51.386;0.016;2023-08-06T22:51:35;19.90;81.60
25360;DHT22;13311;51.386;0.016;2023-08-06T22:56:36;19.80;82.10
25360;DHT22;13311;51.386;0.016;2023-08-06T23:01:37;19.70;82.80
25360;DHT22;13311;51.386;0.016;2023-08-06T23:06:37;19.60;83.40
25360;DHT22;13311;51.386;0.016;2023-08-06T23:11:38;19.50;84.30
25360;DHT22;13311;51.386;0.016;2023-08-06T23:16:39;19.30;85.00
25360;DHT22;13311;51.386;0.016;2023-08-06T23:21:39;19.20;85.70
25360;DHT22;13311;51.386;0.016;2023-08-06T23:26:40;19.10;86.50
25360;DHT22;13311;51.386;0.016;2023-08-06T23:31:41;19.00;86.80
25360;DHT22;13311;51.386;0.016;2023-08-06T23:36:42;18.90;86.90
25360;DHT22;13311;51.386;0.016;2023-08-06T23:41:42;18.90;87.20
25360;DHT22;13311;51.386;0.016;2023-08-06T23:46:43;18.90;87.20
25360;DHT22;13311;51.386;0.016;2023-08-06T23:51:44;18.80;87.70
25360;DHT22;13311;51.386;0.016;2023-08-06T23:56:47;18.80;88.10
